createdAt,value
2023-04-08T00:00:52.828Z,24.33
2023-04-08T00:03:22.011Z,29.20
2023-04-08T00:05:50.093Z,28.27
2023-04-08T00:08:17.976Z,28.08
2023-04-08T00:10:46.147Z,32.25
2023-04-08T00:13:14.899Z,31.05
2023-04-08T00:15:43.038Z,30.55
2023-04-08T00:18:12.453Z,34.20
2023-04-08T00:20:40.465Z,31.30
2023-04-08T00:23:08.334Z,30.92
2023-04-08T00:25:36.313Z,28.98
2023-04-08T00:28:04.286Z,29.83
2023-04-08T00:30:32.272Z,35.08
2023-04-08T00:33:00.211Z,31.00
2023-04-08T00:35:30.036Z,35.20
2023-04-08T00:37:58.084Z,31.63
2023-04-08T00:40:26.044Z,36.05
2023-04-08T00:42:53.953Z,36.47
2023-04-08T00:45:22.212Z,34.15
2023-04-08T00:47:52.602Z,30.33
2023-04-08T00:50:21.155Z,27.88
2023-04-08T00:52:50.428Z,28.98
2023-04-08T00:55:18.254Z,31.98
2023-04-08T00:57:47.242Z,30.60
2023-04-08T01:00:16.668Z,33.58
2023-04-08T01:02:52.592Z,29.45
2023-04-08T01:05:29.831Z,30.70
2023-04-08T01:08:03.022Z,31.15
2023-04-08T01:10:34.703Z,35.15
2023-04-08T01:13:06.361Z,36.47
2023-04-08T01:15:36.531Z,30.92
2023-04-08T01:18:09.194Z,34.50
2023-04-08T01:20:38.324Z,30.15
2023-04-08T01:23:16.337Z,36.33
2023-04-08T01:25:48.833Z,30.13
2023-04-08T01:28:19.053Z,32.22
2023-04-08T01:30:48.376Z,32.90
2023-04-08T01:33:18.718Z,33.15
2023-04-08T01:35:47.625Z,35.22
2023-04-08T01:38:18.546Z,32.85
2023-04-08T01:40:48.924Z,35.53
2023-04-08T01:43:19.235Z,32.38
2023-04-08T01:45:49.208Z,28.17
2023-04-08T01:48:17.587Z,36.05
2023-04-08T01:50:46.603Z,37.25
2023-04-08T01:53:15.480Z,35.42
2023-04-08T01:55:44.329Z,34.15
2023-04-08T01:58:22.415Z,33.58
2023-04-08T02:00:52.876Z,31.90
2023-04-08T02:03:23.321Z,33.25
2023-04-08T02:05:51.477Z,34.03
2023-04-08T02:08:19.426Z,32.92
2023-04-08T02:10:48.584Z,37.72
2023-04-08T02:13:17.786Z,37.58
2023-04-08T02:15:58.255Z,32.20
2023-04-08T02:18:28.656Z,38.88
2023-04-08T02:21:03.647Z,32.65
2023-04-08T02:23:36.622Z,34.55
2023-04-08T02:26:09.209Z,34.45
2023-04-08T02:28:38.935Z,39.42
2023-04-08T02:31:09.596Z,40.72
2023-04-08T02:33:39.913Z,40.95
2023-04-08T02:36:09.670Z,38.72
2023-04-08T02:38:37.613Z,39.15
2023-04-08T02:41:05.902Z,37.47
2023-04-08T02:43:33.760Z,40.90
2023-04-08T02:46:08.373Z,42.72
2023-04-08T02:48:37.677Z,43.63
2023-04-08T02:51:05.634Z,41.22
2023-04-08T02:53:33.646Z,33.35
2023-04-08T02:56:01.695Z,39.60
2023-04-08T02:58:29.613Z,40.90
2023-04-08T03:00:57.526Z,39.38
2023-04-08T03:03:29.850Z,41.45
2023-04-08T03:05:58.539Z,41.85
2023-04-08T03:08:26.524Z,38.95
2023-04-08T03:10:54.453Z,40.15
2023-04-08T03:13:22.621Z,44.88
2023-04-08T03:15:50.509Z,39.58
2023-04-08T03:18:18.498Z,42.50
2023-04-08T03:20:47.795Z,43.58
2023-04-08T03:23:16.437Z,41.60
2023-04-08T03:25:44.271Z,45.72
2023-04-08T03:28:12.079Z,41.13
2023-04-08T03:30:39.969Z,37.17
2023-04-08T03:33:08.816Z,38.17
2023-04-08T03:35:37.395Z,41.03
2023-04-08T03:38:06.765Z,42.67
2023-04-08T03:40:34.717Z,41.55
2023-04-08T03:43:02.634Z,38.10
2023-04-08T03:45:30.405Z,42.33
2023-04-08T03:47:58.283Z,39.95
2023-04-08T03:50:26.260Z,39.55
2023-04-08T03:52:54.072Z,39.42
2023-04-08T03:55:23.422Z,36.22
2023-04-08T03:57:51.343Z,35.20
2023-04-08T04:00:19.338Z,35.85
2023-04-08T04:02:47.394Z,39.20
2023-04-08T04:05:15.539Z,40.95
2023-04-08T04:07:43.396Z,37.97
2023-04-08T04:10:11.894Z,37.85
2023-04-08T04:12:41.302Z,43.80
2023-04-08T04:15:09.913Z,34.30
2023-04-08T04:17:37.909Z,37.97
2023-04-08T04:20:06.607Z,32.42
2023-04-08T04:22:34.496Z,34.55
2023-04-08T04:25:02.352Z,34.20
2023-04-08T04:27:30.265Z,39.53
2023-04-08T04:29:59.482Z,39.40
2023-04-08T04:32:27.413Z,37.85
2023-04-08T04:34:55.277Z,41.28
2023-04-08T04:37:23.114Z,42.38
2023-04-08T04:39:50.968Z,40.33
2023-04-08T04:42:18.795Z,38.58
2023-04-08T04:44:46.652Z,42.40
2023-04-08T04:47:16.414Z,39.00
2023-04-08T04:49:45.656Z,44.42
2023-04-08T04:52:13.538Z,44.33
2023-04-08T04:54:41.370Z,50.97
2023-04-08T04:57:09.367Z,52.67
2023-04-08T04:59:37.225Z,46.67
2023-04-08T05:02:05.799Z,45.65
2023-04-08T05:04:35.145Z,49.35
2023-04-08T05:07:03.149Z,48.72
2023-04-08T05:09:31.650Z,43.17
2023-04-08T05:11:59.619Z,50.40
2023-04-08T05:14:30.336Z,50.35
2023-04-08T05:16:58.303Z,49.08
2023-04-08T05:19:26.390Z,55.28
2023-04-08T05:21:55.931Z,40.40
2023-04-08T05:24:23.864Z,53.67
2023-04-08T05:26:53.388Z,55.03
2023-04-08T05:29:21.970Z,44.35
2023-04-08T05:31:49.953Z,45.80
2023-04-08T05:34:22.868Z,47.60
2023-04-08T05:36:52.899Z,54.67
2023-04-08T05:39:22.192Z,45.33
2023-04-08T05:41:50.073Z,47.13
2023-04-08T05:44:18.044Z,47.08
2023-04-08T05:46:45.947Z,49.72
2023-04-08T05:49:13.853Z,46.13
2023-04-08T05:51:41.832Z,50.47
2023-04-08T05:54:10.141Z,46.85
2023-04-08T05:56:39.438Z,46.25
2023-04-08T05:59:07.577Z,48.55
2023-04-08T06:01:35.526Z,45.25
2023-04-08T06:04:03.587Z,52.47
2023-04-08T06:06:31.895Z,43.83
2023-04-08T06:08:59.731Z,43.45
2023-04-08T06:11:27.614Z,42.33
2023-04-08T06:13:57.191Z,41.03
2023-04-08T06:16:25.226Z,43.30
2023-04-08T06:18:53.430Z,43.17
2023-04-08T06:21:21.652Z,40.95
2023-04-08T06:23:49.466Z,40.45
2023-04-08T06:26:17.312Z,43.92
2023-04-08T06:28:45.174Z,43.72
2023-04-08T06:31:14.476Z,43.78
2023-04-08T06:33:42.490Z,47.65
2023-04-08T06:36:11.240Z,44.88
2023-04-08T06:38:39.163Z,43.03
2023-04-08T06:41:08.115Z,45.03
2023-04-08T06:43:38.077Z,42.10
2023-04-08T06:46:06.470Z,42.95
2023-04-08T06:48:37.888Z,48.15
2023-04-08T06:51:07.851Z,40.22
2023-04-08T06:53:36.046Z,41.63
2023-04-08T06:56:04.121Z,42.67
2023-04-08T06:58:32.178Z,45.30
2023-04-08T07:01:01.157Z,43.88
2023-04-08T07:03:29.232Z,39.50
2023-04-08T07:05:58.638Z,41.17
2023-04-08T07:08:27.306Z,42.22
2023-04-08T07:10:55.282Z,34.83
2023-04-08T07:13:23.674Z,41.03
2023-04-08T07:15:51.833Z,36.65
2023-04-08T07:18:21.340Z,41.25
2023-04-08T07:20:53.098Z,40.35
2023-04-08T07:23:22.631Z,40.13
2023-04-08T07:25:50.728Z,36.20
2023-04-08T07:28:18.675Z,36.03
2023-04-08T07:30:46.639Z,36.65
2023-04-08T07:33:15.711Z,33.03
2023-04-08T07:35:44.655Z,37.65
2023-04-08T07:38:13.448Z,31.98
2023-04-08T07:40:42.830Z,36.67
2023-04-08T07:43:10.830Z,33.28
2023-04-08T07:45:38.737Z,36.13
2023-04-08T07:48:07.117Z,38.13
2023-04-08T07:51:08.845Z,37.83
2023-04-08T07:53:26.522Z,41.17
2023-04-08T07:55:56.042Z,42.13
2023-04-08T07:58:24.926Z,40.10
2023-04-08T08:00:53.256Z,40.38
2023-04-08T08:03:21.229Z,41.67
2023-04-08T08:05:49.401Z,38.00
2023-04-08T08:08:17.271Z,39.22
2023-04-08T08:10:45.090Z,41.00
2023-04-08T08:13:17.079Z,42.15
2023-04-08T08:15:45.029Z,37.08
2023-04-08T08:18:12.842Z,36.83
2023-04-08T08:20:40.730Z,37.05
2023-04-08T08:23:08.535Z,38.00
2023-04-08T08:25:36.309Z,34.33
2023-04-08T08:28:04.512Z,34.90
2023-04-08T08:30:34.179Z,33.78
2023-04-08T08:33:02.261Z,37.22
2023-04-08T08:35:30.177Z,33.42
2023-04-08T08:37:57.976Z,34.88
2023-04-08T08:40:25.864Z,32.20
2023-04-08T08:42:54.174Z,33.22
2023-04-08T08:45:22.322Z,37.53
2023-04-08T08:47:52.552Z,34.10
2023-04-08T08:50:21.050Z,32.05
2023-04-08T08:52:53.053Z,30.80
2023-04-08T08:55:39.428Z,31.42
2023-04-08T08:58:10.069Z,29.13
2023-04-08T09:00:39.184Z,32.50
2023-04-08T09:03:23.206Z,31.98
2023-04-08T09:05:53.365Z,28.23
2023-04-08T09:08:32.190Z,28.10
2023-04-08T09:11:14.323Z,27.38
2023-04-08T09:13:42.868Z,31.73
2023-04-08T09:16:12.585Z,28.70
2023-04-08T09:18:44.888Z,28.65
2023-04-08T09:21:13.866Z,28.23
2023-04-08T09:23:43.777Z,29.35
2023-04-08T09:26:13.446Z,30.05
2023-04-08T09:28:42.482Z,32.60
2023-04-08T09:31:21.662Z,31.98
2023-04-08T09:33:53.834Z,31.85
2023-04-08T09:36:21.757Z,31.02
2023-04-08T09:38:49.940Z,28.92
2023-04-08T09:41:20.513Z,31.33
2023-04-08T09:43:50.417Z,35.95
2023-04-08T09:46:20.142Z,32.88
2023-04-08T09:49:08.092Z,29.52
2023-04-08T09:51:46.446Z,29.00
2023-04-08T09:54:19.886Z,34.13
2023-04-08T09:56:55.872Z,29.65
2023-04-08T09:59:28.728Z,32.40
2023-04-08T10:02:00.360Z,30.50
2023-04-08T10:04:32.195Z,31.10
2023-04-08T10:07:05.348Z,32.50
2023-04-08T10:09:33.906Z,29.15
2023-04-08T10:12:02.596Z,28.35
2023-04-08T10:14:30.404Z,30.95
2023-04-08T10:17:26.312Z,32.45
2023-04-08T10:19:55.746Z,35.13
2023-04-08T10:22:51.619Z,33.00
2023-04-08T10:25:33.714Z,36.05
2023-04-08T10:28:03.395Z,34.40
2023-04-08T10:30:42.196Z,37.47
2023-04-08T10:33:16.052Z,39.80
2023-04-08T10:35:55.919Z,38.50
2023-04-08T10:38:24.000Z,39.05
2023-04-08T10:40:52.473Z,36.80
2023-04-08T10:43:20.944Z,42.95
2023-04-08T10:45:51.343Z,41.28
2023-04-08T10:48:22.509Z,37.92
2023-04-08T10:50:55.963Z,34.95
2023-04-08T10:53:30.684Z,35.38
2023-04-08T10:56:06.398Z,33.47
2023-04-08T10:58:34.537Z,35.13
2023-04-08T11:01:08.220Z,33.65
2023-04-08T11:03:37.523Z,36.05
2023-04-08T11:06:07.463Z,37.30
2023-04-08T11:08:37.616Z,43.67
2023-04-08T11:11:09.119Z,39.53
2023-04-08T11:13:37.714Z,40.63
2023-04-08T11:16:16.961Z,34.65
2023-04-08T11:18:47.891Z,40.65
2023-04-08T11:21:18.075Z,37.40
2023-04-08T11:23:46.439Z,38.70
2023-04-08T11:26:16.280Z,33.55
2023-04-08T11:28:45.449Z,38.85
2023-04-08T11:31:14.338Z,37.60
2023-04-08T11:33:47.487Z,36.58
2023-04-08T11:36:19.053Z,36.22
2023-04-08T11:38:47.911Z,37.40
2023-04-08T11:41:16.134Z,36.22
2023-04-08T11:43:53.379Z,36.05
2023-04-08T11:46:21.427Z,35.83
2023-04-08T11:49:00.026Z,33.83
2023-04-08T11:51:30.473Z,36.50
2023-04-08T11:53:58.539Z,32.88
2023-04-08T11:56:27.311Z,34.20
2023-04-08T11:58:55.662Z,34.88
2023-04-08T12:01:23.594Z,28.45
2023-04-08T12:03:56.323Z,29.45
2023-04-08T12:06:24.837Z,26.17
2023-04-08T12:08:54.407Z,26.98
2023-04-08T12:11:22.314Z,25.80
2023-04-08T12:13:51.156Z,28.20
2023-04-08T12:16:21.318Z,24.35
2023-04-08T12:18:50.146Z,24.58
2023-04-08T12:21:18.081Z,23.48
2023-04-08T12:23:45.880Z,24.25
2023-04-08T12:26:15.234Z,23.70
2023-04-08T12:28:43.086Z,26.55
2023-04-08T12:31:10.985Z,25.90
2023-04-08T12:33:38.874Z,25.77
2023-04-08T12:36:07.042Z,27.10
2023-04-08T12:38:34.910Z,24.95
2023-04-08T12:41:02.852Z,25.65
2023-04-08T12:43:32.838Z,25.45
2023-04-08T12:46:01.666Z,27.63
2023-04-08T12:48:29.540Z,24.00
2023-04-08T12:50:58.852Z,24.75
2023-04-08T12:53:26.677Z,26.88
2023-04-08T12:55:57.110Z,19.75
2023-04-08T12:58:25.737Z,17.08
2023-04-08T13:00:55.082Z,14.82
2023-04-08T13:03:23.046Z,17.83
2023-04-08T13:05:51.062Z,12.65
2023-04-08T13:08:19.229Z,14.63
2023-04-08T13:10:47.303Z,14.88
2023-04-08T13:13:15.179Z,14.52
2023-04-08T13:15:43.796Z,15.93
2023-04-08T13:18:13.062Z,16.05
2023-04-08T13:20:41.068Z,17.10
2023-04-08T13:23:09.030Z,15.98
2023-04-08T13:25:36.931Z,15.65
2023-04-08T13:28:05.053Z,13.40
2023-04-08T13:30:32.969Z,16.70
2023-04-08T13:33:00.904Z,17.63
2023-04-08T13:35:30.649Z,20.30
2023-04-08T13:37:58.821Z,15.93
2023-04-08T13:40:27.842Z,18.05
2023-04-08T13:42:55.819Z,16.23
2023-04-08T13:45:23.879Z,14.65
2023-04-08T13:47:51.830Z,14.32
2023-04-08T13:50:19.730Z,15.27
2023-04-08T13:52:49.022Z,14.70
2023-04-08T13:55:17.293Z,16.05
2023-04-08T13:57:45.270Z,14.25
2023-04-08T14:00:14.101Z,17.05
2023-04-08T14:02:42.807Z,18.55
2023-04-08T14:05:11.042Z,18.13
2023-04-08T14:07:38.908Z,16.05
2023-04-08T14:10:09.699Z,19.52
2023-04-08T14:12:37.553Z,19.85
2023-04-08T14:15:06.051Z,19.42
2023-04-08T14:17:34.918Z,17.83
2023-04-08T14:20:02.850Z,17.13
2023-04-08T14:22:30.819Z,18.05
2023-04-08T14:24:58.863Z,18.52
2023-04-08T14:27:28.884Z,22.58
2023-04-08T14:29:56.768Z,19.25
2023-04-08T14:32:24.762Z,17.15
2023-04-08T14:34:52.832Z,18.63
2023-04-08T14:37:20.929Z,16.40
2023-04-08T14:39:48.930Z,14.90
2023-04-08T14:42:18.388Z,14.40
2023-04-08T14:44:47.804Z,14.60
2023-04-08T14:47:15.990Z,16.92
2023-04-08T14:49:43.952Z,12.75
2023-04-08T14:52:11.989Z,12.85
2023-04-08T14:54:39.968Z,13.05
2023-04-08T14:57:08.109Z,13.35
2023-04-08T14:59:36.101Z,12.55
2023-04-08T15:02:05.662Z,12.80
2023-04-08T15:04:33.885Z,14.35
2023-04-08T15:07:01.955Z,11.43
2023-04-08T15:09:29.840Z,11.43
2023-04-08T15:11:58.292Z,15.02
2023-04-08T15:14:26.298Z,15.15
2023-04-08T15:16:54.185Z,13.35
2023-04-08T15:19:23.785Z,11.70
2023-04-08T15:21:51.706Z,11.60
2023-04-08T15:24:20.456Z,12.80
2023-04-08T15:26:48.385Z,11.20
2023-04-08T15:29:17.031Z,11.65
2023-04-08T15:31:44.909Z,11.25
2023-04-08T15:34:12.893Z,11.90
2023-04-08T15:36:42.234Z,12.60
2023-04-08T15:39:10.206Z,10.40
2023-04-08T15:41:38.047Z,11.15
2023-04-08T15:44:06.390Z,11.50
2023-04-08T15:46:35.577Z,12.52
2023-04-08T15:49:05.305Z,12.40
2023-04-08T15:51:33.916Z,10.15
2023-04-08T15:54:03.296Z,12.20
2023-04-08T15:56:31.235Z,10.50
2023-04-08T15:58:59.122Z,10.60
2023-04-08T16:01:27.018Z,10.75
2023-04-08T16:03:55.043Z,11.57
2023-04-08T16:06:22.990Z,11.30
2023-04-08T16:08:51.088Z,10.85
2023-04-08T16:11:21.906Z,10.25
2023-04-08T16:13:49.855Z,12.10
2023-04-08T16:16:18.020Z,9.88
2023-04-08T16:18:47.418Z,11.07
2023-04-08T16:21:15.486Z,9.98
2023-04-08T16:23:43.368Z,9.93
2023-04-08T16:26:11.185Z,11.63
2023-04-08T16:28:40.417Z,9.93
2023-04-08T16:31:08.296Z,12.48
2023-04-08T16:33:36.591Z,10.52
2023-04-08T16:36:05.252Z,10.52
2023-04-08T16:38:33.138Z,10.32
2023-04-08T16:41:01.064Z,9.40
2023-04-08T16:43:29.364Z,11.77
2023-04-08T16:45:58.668Z,11.52
2023-04-08T16:48:26.982Z,13.45
2023-04-08T16:50:54.751Z,12.07
2023-04-08T16:53:22.595Z,12.63
2023-04-08T16:55:50.455Z,20.90
2023-04-08T16:58:18.373Z,12.98
2023-04-08T17:00:46.316Z,12.93
2023-04-08T17:03:15.830Z,53.30
2023-04-08T17:05:43.857Z,44.10
2023-04-08T17:08:12.809Z,17.30
2023-04-08T17:10:40.876Z,14.32
2023-04-08T17:13:08.800Z,14.38
2023-04-08T17:15:37.880Z,14.35
2023-04-08T17:18:06.557Z,14.90
2023-04-08T17:20:36.122Z,15.13
2023-04-08T17:23:03.929Z,14.68
2023-04-08T17:25:31.727Z,11.13
2023-04-08T17:27:59.545Z,11.30
2023-04-08T17:30:27.384Z,13.70
2023-04-08T17:32:55.268Z,12.57
2023-04-08T17:35:23.094Z,16.60
2023-04-08T17:37:52.378Z,12.50
2023-04-08T17:40:20.394Z,13.57
2023-04-08T17:42:48.337Z,10.35
2023-04-08T17:45:16.550Z,12.45
2023-04-08T17:47:44.489Z,11.45
2023-04-08T17:50:12.463Z,10.38
2023-04-08T17:52:43.515Z,13.55
2023-04-08T17:55:13.069Z,11.90
2023-04-08T17:57:41.076Z,11.23
2023-04-08T18:00:10.064Z,12.23
2023-04-08T18:02:38.196Z,10.85
2023-04-08T18:05:07.871Z,11.07
2023-04-08T18:07:35.786Z,11.32
2023-04-08T18:10:03.772Z,13.25
2023-04-08T18:12:32.978Z,11.32
2023-04-08T18:15:01.053Z,12.57
2023-04-08T18:17:29.003Z,11.43
2023-04-08T18:19:56.931Z,11.65
2023-04-08T18:22:24.883Z,13.18
2023-04-08T18:24:52.711Z,13.32
2023-04-08T18:27:20.552Z,14.45
2023-04-08T18:29:50.609Z,14.05
2023-04-08T18:32:18.601Z,11.48
2023-04-08T18:34:47.120Z,15.65
2023-04-08T18:37:16.955Z,13.65
2023-04-08T18:39:44.876Z,17.10
2023-04-08T18:42:12.797Z,15.77
2023-04-08T18:44:40.637Z,17.77
2023-04-08T18:47:10.129Z,16.67
2023-04-08T18:49:38.578Z,15.02
2023-04-08T18:52:06.690Z,16.02
2023-04-08T18:54:34.627Z,15.43
2023-04-08T18:57:02.660Z,16.00
2023-04-08T18:59:30.608Z,17.75
2023-04-08T19:01:58.889Z,18.20
2023-04-08T19:04:28.281Z,19.10
2023-04-08T19:06:56.337Z,17.92
2023-04-08T19:09:24.299Z,20.73
2023-04-08T19:11:52.194Z,40.65
2023-04-08T19:14:20.895Z,28.55
2023-04-08T19:16:49.074Z,24.02
2023-04-08T19:19:17.151Z,23.25
2023-04-08T19:21:46.650Z,20.95
2023-04-08T19:24:14.549Z,20.75
2023-04-08T19:26:42.468Z,18.35
2023-04-08T19:29:11.889Z,18.88
2023-04-08T19:31:40.769Z,18.58
2023-04-08T19:34:08.818Z,20.35
2023-04-08T19:36:36.734Z,18.35
2023-04-08T19:39:06.016Z,18.48
2023-04-08T19:41:33.902Z,19.10
2023-04-08T19:44:01.873Z,19.38
2023-04-08T19:46:30.082Z,19.00
2023-04-08T19:48:58.967Z,17.45
2023-04-08T19:51:27.360Z,18.95
2023-04-08T19:53:55.323Z,20.77
2023-04-08T19:56:25.498Z,22.13
2023-04-08T19:58:53.580Z,19.67
2023-04-08T20:01:22.241Z,21.65
2023-04-08T20:03:52.260Z,21.58
2023-04-08T20:06:21.472Z,21.52
2023-04-08T20:08:50.140Z,22.60
2023-04-08T20:11:18.254Z,21.63
2023-04-08T20:13:49.401Z,22.17
2023-04-08T20:16:17.404Z,22.20
2023-04-08T20:18:45.290Z,20.67
2023-04-08T20:21:14.723Z,20.63
2023-04-08T20:23:44.409Z,22.23
2023-04-08T20:26:13.134Z,21.55
2023-04-08T20:28:41.306Z,21.08
2023-04-08T20:31:10.857Z,22.10
2023-04-08T20:33:43.573Z,22.85
2023-04-08T20:36:12.420Z,22.80
2023-04-08T20:38:40.829Z,23.27
2023-04-08T20:41:08.784Z,24.45
2023-04-08T20:43:36.552Z,29.05
2023-04-08T20:46:04.530Z,36.67
2023-04-08T20:48:34.439Z,48.50
2023-04-08T20:51:02.866Z,86.07
2023-04-08T20:53:31.432Z,77.70
2023-04-08T20:55:59.350Z,92.22
2023-04-08T20:58:27.254Z,102.00
2023-04-08T21:00:55.704Z,77.78
2023-04-08T21:03:23.804Z,73.88
2023-04-08T21:05:55.259Z,65.97
2023-04-08T21:08:23.584Z,56.65
2023-04-08T21:10:51.350Z,55.90
2023-04-08T21:13:19.213Z,53.20
2023-04-08T21:15:47.068Z,46.90
2023-04-08T21:18:15.091Z,36.42
2023-04-08T21:20:43.024Z,35.47
2023-04-08T21:23:12.944Z,34.65
2023-04-08T21:25:40.887Z,33.47
2023-04-08T21:28:09.011Z,27.90
2023-04-08T21:30:36.992Z,31.55
2023-04-08T21:33:04.985Z,29.48
2023-04-08T21:35:33.252Z,29.65
2023-04-08T21:38:01.300Z,27.30
2023-04-08T21:40:30.589Z,29.02
2023-04-08T21:42:58.785Z,28.38
2023-04-08T21:45:26.588Z,26.55
2023-04-08T21:47:55.231Z,29.50
2023-04-08T21:50:23.195Z,28.75
2023-04-08T21:52:51.051Z,33.13
2023-04-08T21:55:18.989Z,30.50
2023-04-08T21:57:49.024Z,32.30
2023-04-08T22:00:17.038Z,32.13
2023-04-08T22:02:46.475Z,32.53
2023-04-08T22:05:14.501Z,29.95
2023-04-08T22:07:42.404Z,30.92
2023-04-08T22:10:11.071Z,31.02
2023-04-08T22:12:39.114Z,30.27
2023-04-08T22:15:09.887Z,31.27
2023-04-08T22:17:37.866Z,31.90
2023-04-08T22:20:06.515Z,33.50
2023-04-08T22:22:34.445Z,31.30
2023-04-08T22:25:02.470Z,32.35
2023-04-08T22:27:30.387Z,32.50
2023-04-08T22:29:58.343Z,31.73
2023-04-08T22:32:27.584Z,33.75
2023-04-08T22:34:55.514Z,32.95
2023-04-08T22:37:23.381Z,33.38
2023-04-08T22:39:51.267Z,34.65
2023-04-08T22:42:19.104Z,31.33
2023-04-08T22:44:47.237Z,32.28
2023-04-08T22:47:15.630Z,32.00
2023-04-08T22:49:44.911Z,34.03
2023-04-08T22:52:12.798Z,34.95
2023-04-08T22:54:40.807Z,32.72
2023-04-08T22:57:08.707Z,34.22
2023-04-08T22:59:36.516Z,34.88
2023-04-08T23:02:04.486Z,33.78
2023-04-08T23:04:32.489Z,35.33
2023-04-08T23:07:01.753Z,32.85
2023-04-08T23:09:29.767Z,34.50
2023-04-08T23:11:58.088Z,30.73
2023-04-08T23:14:26.142Z,34.47
2023-04-08T23:16:54.063Z,32.47
2023-04-08T23:19:22.005Z,36.00
2023-04-08T23:21:49.883Z,32.65
2023-04-08T23:24:19.102Z,31.90
2023-04-08T23:26:48.679Z,33.22
2023-04-08T23:29:16.539Z,31.70
2023-04-08T23:31:44.830Z,31.35
2023-04-08T23:34:12.790Z,35.50
2023-04-08T23:36:40.691Z,30.85
2023-04-08T23:39:08.542Z,32.33
2023-04-08T23:41:37.866Z,31.10
2023-04-08T23:44:05.998Z,32.00
2023-04-08T23:46:34.005Z,32.60
2023-04-08T23:49:02.062Z,33.17
2023-04-08T23:51:30.055Z,33.25
2023-04-08T23:53:58.025Z,30.73
2023-04-08T23:56:26.170Z,33.10
2023-04-08T23:58:55.610Z,30.88
